Moro, Oregon
Current Conditions -  °F | °C
As of 4:53 AM on Saturday 20 Dec 2014 (Local Time) from KDLS Reporting Station
Overcast Overcast  
Wind Chill: 37°   Ceiling: 7500
Heat Index: 40°   Visibility: 9mi
Dew Point: 39°   Wind: 5mph
Humidity: 97%   Direction: 210°SSW
Pressure: 29.86"   Gusts: NA
Location:  45.48°N, 120.73°W
Report Text: KDLS 201253Z AUTO 21004KT 9SM SCT007 OVC075 04/04 A2986 RMK AO2 RAE14 SLP114 P0000 T00440039
Loading
Personal Weather Stations






























Interactive Weather Map New forecast layout! Learn more

10-Day Weather Forecast

Advertisements
Track Severe Weather on mobile